createdAt,value
2022-08-14T00:00:40.726Z,2.70
2022-08-14T00:15:43.631Z,2.83
2022-08-14T00:30:24.450Z,3.11
2022-08-14T00:45:15.472Z,2.61
2022-08-14T01:00:34.294Z,2.97
2022-08-14T01:15:04.300Z,2.94
2022-08-14T01:30:00.638Z,2.66
2022-08-14T01:44:49.908Z,2.76
2022-08-14T01:59:38.793Z,2.90
2022-08-14T02:14:32.233Z,3.12
2022-08-14T02:44:13.000Z,2.83
2022-08-14T02:59:05.473Z,2.92
2022-08-14T03:28:46.918Z,2.87
2022-08-14T03:43:37.101Z,3.29
2022-08-14T03:58:36.660Z,3.30
2022-08-14T04:13:20.593Z,2.98
2022-08-14T04:28:11.078Z,3.22
2022-08-14T04:43:20.901Z,2.81
2022-08-14T04:58:21.983Z,3.03
2022-08-14T05:13:15.702Z,3.47
2022-08-14T05:28:11.574Z,3.10
2022-08-14T05:43:07.472Z,3.29
2022-08-14T05:58:00.270Z,3.20
2022-08-14T06:12:56.555Z,3.72
2022-08-14T06:27:45.473Z,3.40
2022-08-14T06:42:37.528Z,3.39
2022-08-14T06:57:36.069Z,3.51
2022-08-14T07:12:35.999Z,3.99
2022-08-14T07:27:25.637Z,3.80
2022-08-14T07:42:19.983Z,3.91
2022-08-14T07:57:12.162Z,3.55
2022-08-14T08:12:09.272Z,3.66
2022-08-14T08:27:04.427Z,3.44
2022-08-14T08:41:57.295Z,3.42
2022-08-14T08:56:52.111Z,2.88
2022-08-14T09:11:43.250Z,2.61
2022-08-14T09:26:37.296Z,2.81
2022-08-14T09:42:20.543Z,2.41
2022-08-14T09:56:51.624Z,2.64
2022-08-14T10:11:43.390Z,3.04
2022-08-14T10:26:33.132Z,2.70
2022-08-14T10:41:31.831Z,3.14
2022-08-14T10:56:21.484Z,2.96
2022-08-14T11:11:14.330Z,2.70
2022-08-14T11:26:07.553Z,2.94
2022-08-14T11:41:00.492Z,2.41
2022-08-14T11:55:54.452Z,2.19
2022-08-14T12:10:49.154Z,2.56
2022-08-14T12:25:41.697Z,2.10
2022-08-14T12:40:35.304Z,2.24
2022-08-14T12:55:32.552Z,1.96
2022-08-14T13:10:47.853Z,2.28
2022-08-14T13:25:15.662Z,2.32
2022-08-14T13:40:07.619Z,2.34
2022-08-14T13:55:00.642Z,2.17
2022-08-14T14:09:53.316Z,2.66
2022-08-14T14:24:45.417Z,2.60
2022-08-14T14:40:50.691Z,2.24
2022-08-14T14:54:31.448Z,2.07
2022-08-14T15:09:37.898Z,2.86
2022-08-14T15:24:28.449Z,3.02
2022-08-14T15:54:11.259Z,2.74
2022-08-14T16:09:03.764Z,2.79
2022-08-14T16:23:55.801Z,2.92
2022-08-14T16:38:48.399Z,4.13
2022-08-14T16:53:40.510Z,3.18
2022-08-14T17:08:46.018Z,3.52
2022-08-14T17:23:29.917Z,2.49
2022-08-14T17:38:38.475Z,2.91
2022-08-14T17:53:09.599Z,4.39
2022-08-14T18:08:33.825Z,4.10
2022-08-14T18:22:52.459Z,4.20
2022-08-14T18:37:55.833Z,3.91
2022-08-14T18:52:35.998Z,3.58
2022-08-14T19:07:28.601Z,3.56
2022-08-14T19:22:29.536Z,3.33
2022-08-14T19:37:12.153Z,4.26
2022-08-14T19:52:03.189Z,3.90
2022-08-14T20:06:55.225Z,3.24
2022-08-14T20:22:00.758Z,3.10
2022-08-14T20:36:37.198Z,3.68
2022-08-14T20:51:59.034Z,3.66
2022-08-14T21:07:25.118Z,3.80
2022-08-14T21:21:41.434Z,3.50
2022-08-14T21:36:30.804Z,3.51
2022-08-14T21:51:56.057Z,3.62
2022-08-14T22:06:12.417Z,3.77
2022-08-14T22:21:05.710Z,3.59
2022-08-14T22:35:56.160Z,3.96
2022-08-14T22:50:49.201Z,3.84
2022-08-14T23:05:52.567Z,4.18
2022-08-14T23:20:36.367Z,3.92
2022-08-14T23:35:33.016Z,3.90
2022-08-14T23:50:34.617Z,3.81
